X  Fermer Données météorologiques d'aviation de Metar        LGTS Thessaloniki Macedonia International
Température
15°C Température
15°C Point de rosée
100% Humidité



Vent
3 M/S
7 MPH
11 KM/H
6 KTS



290°
ONO
Conditions actuelles

Cloudy with Mist and Fog Nuageux , Brume et brouillard
Pression 1006 (hPa) - 29.7 (inHg)
Visibilité 6 (mile) - 9 (km)
Aéroport
Code de l'aéroport LGTS

Emplacement: Thessaloniki Macedonia International
Distance: 85 (km)

Metar:
METAR LGTS 231950Z 29006KT 260V350 9000 4500SE BR SCT006 BKN025 OVC050 15/15 Q1006 NOSIG

Temps: 23-04-2024 22:50 EEST